Map

Track Data

SID SEASON NUMBER BASIN SUBBASIN NAME ISO_TIME NATURE LAT LON WMO_WIND WMO_PRES WMO_AGENCY TRACK_TYPE DIST2LAND LANDFALL IFLAG USA_AGENCY USA_ATCF_ID USA_LAT USA_LON USA_RECORD USA_STATUS USA_WIND USA_PRES USA_SSHS USA_R34_NE USA_R34_SE USA_R34_SW USA_R34_NW USA_R50_NE USA_R50_SE USA_R50_SW USA_R50_NW USA_R64_NE USA_R64_SE USA_R64_SW USA_R64_NW USA_POCI USA_ROCI USA_RMW USA_EYE TOKYO_LAT TOKYO_LON TOKYO_GRADE TOKYO_WIND TOKYO_PRES TOKYO_R50_DIR TOKYO_R50_LONG TOKYO_R50_SHORT TOKYO_R30_DIR TOKYO_R30_LONG TOKYO_R30_SHORT TOKYO_LAND CMA_LAT CMA_LON CMA_CAT CMA_WIND CMA_PRES HKO_LAT HKO_LON HKO_CAT HKO_WIND HKO_PRES NEWDELHI_LAT NEWDELHI_LON NEWDELHI_GRADE NEWDELHI_WIND NEWDELHI_PRES NEWDELHI_CI NEWDELHI_DP NEWDELHI_POCI REUNION_LAT REUNION_LON REUNION_TYPE REUNION_WIND REUNION_PRES REUNION_TNUM REUNION_CI REUNION_RMW REUNION_R34_NE REUNION_R34_SE REUNION_R34_SW REUNION_R34_NW REUNION_R50_NE REUNION_R50_SE REUNION_R50_SW REUNION_R50_NW REUNION_R64_NE REUNION_R64_SE REUNION_R64_SW REUNION_R64_NW BOM_LAT BOM_LON BOM_TYPE BOM_WIND BOM_PRES BOM_TNUM BOM_CI BOM_RMW BOM_R34_NE BOM_R34_SE BOM_R34_SW BOM_R34_NW BOM_R50_NE BOM_R50_SE BOM_R50_SW BOM_R50_NW BOM_R64_NE BOM_R64_SE BOM_R64_SW BOM_R64_NW BOM_ROCI BOM_POCI BOM_EYE BOM_POS_METHOD BOM_PRES_METHOD NADI_LAT NADI_LON NADI_CAT NADI_WIND NADI_PRES WELLINGTON_LAT WELLINGTON_LON WELLINGTON_WIND WELLINGTON_PRES DS824_LAT DS824_LON DS824_STAGE DS824_WIND DS824_PRES TD9636_LAT TD9636_LON TD9636_STAGE TD9636_WIND TD9636_PRES TD9635_LAT TD9635_LON TD9635_WIND TD9635_PRES TD9635_ROCI NEUMANN_LAT NEUMANN_LON NEUMANN_CLASS NEUMANN_WIND NEUMANN_PRES MLC_LAT MLC_LON MLC_CLASS MLC_WIND MLC_PRES USA_GUST BOM_GUST BOM_GUST_PER REUNION_GUST REUNION_GUST_PER USA_SEAHGT USA_SEARAD_NE USA_SEARAD_SE USA_SEARAD_SW USA_SEARAD_NW STORM_SPEED STORM_DIR
1938009S15044 1938 5 SI MM NOT_NAMED 1938-01-09 00:00:00 TS -14.6000 44.3000 main 178 165 _________O____ -1 -14.6000 44.3000 TC 25 6 213
1938009S15044 1938 5 SI MM NOT_NAMED 1938-01-09 03:00:00 TS -14.8450 44.1376 main 170 140 _________P____ -1 -14.8450 44.1376 TC 25 6 210
1938009S15044 1938 5 SI MM NOT_NAMED 1938-01-09 06:00:00 TS -15.1000 44.0000 main 140 114 _________O____ -1 -15.1000 44.0000 TC 25 6 203
1938009S15044 1938 5 SI MM NOT_NAMED 1938-01-09 09:00:00 TS -15.3775 43.8999 main 114 92 _________P____ -1 -15.3775 43.8999 TC 25 6 198
1938009S15044 1938 5 SI MM NOT_NAMED 1938-01-09 12:00:00 TS -15.7000 43.8000 main 92 78 _________O____ -1 -15.7000 43.8000 TC 25 8 199
1938009S15044 1938 5 SI MM NOT_NAMED 1938-01-09 15:00:00 TS -16.0850 43.6501 main 78 78 _________P____ -1 -16.0850 43.6501 TC 25 9 200
1938009S15044 1938 5 SI MM NOT_NAMED 1938-01-09 18:00:00 TS -16.5000 43.5000 main 95 81 _________O____ -1 -16.5000 43.5000 TC 25 9 197
1938009S15044 1938 5 SI MM NOT_NAMED 1938-01-09 21:00:00 TS -16.9300 43.3850 main 81 67 _________P____ -1 -16.9300 43.3850 TC 25 8 193
1938009S15044 1938 5 SI MM NOT_NAMED 1938-01-10 00:00:00 TS -17.3000 43.3000 main 67 63 _________O____ -1 -17.3000 43.3000 TC 25 6 193
1938009S15044 1938 5 SI MM NOT_NAMED 1938-01-10 03:00:00 TS -17.5225 43.2424 main 74 74 _________P____ -1 -17.5225 43.2424 TC 25 4 193
1938009S15044 1938 5 SI MM NOT_NAMED 1938-01-10 06:00:00 TS -17.7000 43.2000 main 77 77 _________O____ -1 -17.7000 43.2000 TC 25 4 192
1938009S15044 1938 5 SI MM NOT_NAMED 1938-01-10 09:00:00 TS -17.9425 43.1500 main 84 95 _________P____ -1 -17.9425 43.1500 TC 25 5 191
1938009S15044 1938 5 SI MM NOT_NAMED 1938-01-10 12:00:00 TS -18.2000 43.1000 main 95 94 _________O____ -1 -18.2000 43.1000 TC 25 5 192
1938009S15044 1938 5 SI MM NOT_NAMED 1938-01-10 15:00:00 TS -18.4425 43.0425 main 105 105 _________P____ -1 -18.4425 43.0425 TC 25 5 191
1938009S15044 1938 5 SI MM NOT_NAMED 1938-01-10 18:00:00 TS -18.7000 43.0000 main 110 110 _________O____ -1 -18.7000 43.0000 TC 25 6 185
1938009S15044 1938 5 SI MM NOT_NAMED 1938-01-10 21:00:00 TS -19.0000 42.9999 main 124 124 _________P____ -1 -19.0000 42.9999 TC 25 6 179
1938009S15044 1938 5 SI MM NOT_NAMED 1938-01-11 00:00:00 TS -19.3000 43.0000 main 127 127 _________O____ -1 -19.3000 43.0000 TC 25 6 185
1938009S15044 1938 5 SI MM NOT_NAMED 1938-01-11 03:00:00 TS -19.5575 42.9501 main 137 137 _________P____ -1 -19.5575 42.9501 TC 25 5 191
1938009S15044 1938 5 SI MM NOT_NAMED 1938-01-11 06:00:00 TS -19.8000 42.9000 main 147 137 _________O____ -1 -19.8000 42.9000 TC 25 5 187
1938009S15044 1938 5 SI MM NOT_NAMED 1938-01-11 09:00:00 TS -20.0575 42.8925 main 130 118 _________P____ -1 -20.0575 42.8925 TC 25 5 178
1938009S15044 1938 5 SI MM NOT_NAMED 1938-01-11 12:00:00 TS -20.3000 42.9000 main 118 109 _________O____ -1 -20.3000 42.9000 TC 25 5 0
1938009S15044 1938 5 SI MM NOT_NAMED 1938-01-11 15:00:00 TS -20.5075 42.9000 main 109 100 _________P____ -1 -20.5075 42.9000 TC 25 4 0
1938009S15044 1938 5 SI MM NOT_NAMED 1938-01-11 18:00:00 TS -20.7000 42.9000 main 100 83 _________O____ -1 -20.7000 42.9000 TC 25 4 0
1938009S15044 1938 5 SI MM NOT_NAMED 1938-01-11 21:00:00 TS -20.8975 42.9000 main 83 70 _________P____ -1 -20.8975 42.9000 TC 25 4 0
1938009S15044 1938 5 SI MM NOT_NAMED 1938-01-12 00:00:00 TS -21.1000 42.9000 main 70 _________O____ -1 -21.1000 42.9000 TC 25 4 0

About IBTrACS Database

This database is a web-friendly format of International Best Track Archive for Climate Stewardship (IBTrACS), a global best track data archive curated by NOAA dating back to 1842.

Updated: 2021-12-03